sensor_id;sensor_type;location;lat;lon;timestamp;P1;durP1;ratioP1;P2;durP2;ratioP2
10727;SDS011;5415;59.322;18.246;2022-12-18T00:00:00;28.13;;;17.63;;
10727;SDS011;5415;59.322;18.246;2022-12-18T00:02:32;34.17;;;18.97;;
10727;SDS011;5415;59.322;18.246;2022-12-18T00:04:59;32.13;;;17.97;;
10727;SDS011;5415;59.322;18.246;2022-12-18T00:07:26;29.47;;;16.07;;
10727;SDS011;5415;59.322;18.246;2022-12-18T00:09:56;32.40;;;18.00;;
10727;SDS011;5415;59.322;18.246;2022-12-18T00:12:24;30.27;;;17.13;;
10727;SDS011;5415;59.322;18.246;2022-12-18T00:14:53;30.90;;;16.90;;
10727;SDS011;5415;59.322;18.246;2022-12-18T00:17:20;30.93;;;17.57;;
10727;SDS011;5415;59.322;18.246;2022-12-18T00:19:47;30.30;;;15.37;;
10727;SDS011;5415;59.322;18.246;2022-12-18T00:22:15;33.13;;;18.03;;
10727;SDS011;5415;59.322;18.246;2022-12-18T00:24:42;30.37;;;17.60;;
10727;SDS011;5415;59.322;18.246;2022-12-18T00:27:10;34.33;;;16.73;;
10727;SDS011;5415;59.322;18.246;2022-12-18T00:29:37;27.73;;;16.67;;
10727;SDS011;5415;59.322;18.246;2022-12-18T00:32:06;32.43;;;17.47;;
10727;SDS011;5415;59.322;18.246;2022-12-18T00:34:33;28.77;;;18.30;;
10727;SDS011;5415;59.322;18.246;2022-12-18T00:37:01;32.97;;;18.10;;
10727;SDS011;5415;59.322;18.246;2022-12-18T00:39:29;28.70;;;17.43;;
10727;SDS011;5415;59.322;18.246;2022-12-18T00:41:58;33.57;;;18.07;;
10727;SDS011;5415;59.322;18.246;2022-12-18T00:44:43;30.97;;;17.07;;
10727;SDS011;5415;59.322;18.246;2022-12-18T00:47:12;28.90;;;16.60;;
10727;SDS011;5415;59.322;18.246;2022-12-18T00:49:40;30.70;;;15.97;;
10727;SDS011;5415;59.322;18.246;2022-12-18T00:52:07;33.63;;;17.07;;
10727;SDS011;5415;59.322;18.246;2022-12-18T00:54:35;27.27;;;15.60;;
10727;SDS011;5415;59.322;18.246;2022-12-18T00:57:03;30.23;;;16.37;;
10727;SDS011;5415;59.322;18.246;2022-12-18T00:59:30;28.97;;;16.97;;
10727;SDS011;5415;59.322;18.246;2022-12-18T01:01:58;32.43;;;17.77;;
10727;SDS011;5415;59.322;18.246;2022-12-18T01:04:27;27.23;;;15.67;;
10727;SDS011;5415;59.322;18.246;2022-12-18T01:06:54;28.00;;;16.13;;
10727;SDS011;5415;59.322;18.246;2022-12-18T01:09:21;32.67;;;16.83;;
10727;SDS011;5415;59.322;18.246;2022-12-18T01:11:51;30.30;;;14.97;;
10727;SDS011;5415;59.322;18.246;2022-12-18T01:14:19;30.53;;;15.97;;
10727;SDS011;5415;59.322;18.246;2022-12-18T01:16:46;27.73;;;15.27;;
10727;SDS011;5415;59.322;18.246;2022-12-18T01:19:13;29.87;;;14.93;;
10727;SDS011;5415;59.322;18.246;2022-12-18T01:21:43;27.67;;;15.77;;
10727;SDS011;5415;59.322;18.246;2022-12-18T01:24:11;28.43;;;15.43;;
10727;SDS011;5415;59.322;18.246;2022-12-18T01:26:39;25.87;;;15.83;;
10727;SDS011;5415;59.322;18.246;2022-12-18T01:29:07;22.93;;;13.10;;
10727;SDS011;5415;59.322;18.246;2022-12-18T01:31:34;27.47;;;16.00;;
10727;SDS011;5415;59.322;18.246;2022-12-18T01:34:02;28.03;;;16.27;;
10727;SDS011;5415;59.322;18.246;2022-12-18T01:36:32;28.63;;;15.97;;
10727;SDS011;5415;59.322;18.246;2022-12-18T01:39:02;24.37;;;14.27;;
10727;SDS011;5415;59.322;18.246;2022-12-18T01:41:31;26.70;;;15.97;;
10727;SDS011;5415;59.322;18.246;2022-12-18T01:46:55;29.30;;;15.80;;
10727;SDS011;5415;59.322;18.246;2022-12-18T01:49:22;23.00;;;10.60;;
10727;SDS011;5415;59.322;18.246;2022-12-18T01:51:51;26.17;;;15.03;;
10727;SDS011;5415;59.322;18.246;2022-12-18T01:54:22;31.67;;;16.80;;
10727;SDS011;5415;59.322;18.246;2022-12-18T01:56:49;32.87;;;17.73;;
10727;SDS011;5415;59.322;18.246;2022-12-18T01:59:17;31.20;;;16.77;;
10727;SDS011;5415;59.322;18.246;2022-12-18T02:01:45;24.90;;;15.23;;
10727;SDS011;5415;59.322;18.246;2022-12-18T02:04:19;26.03;;;16.00;;
10727;SDS011;5415;59.322;18.246;2022-12-18T02:06:49;27.77;;;17.40;;
10727;SDS011;5415;59.322;18.246;2022-12-18T02:09:18;27.47;;;15.57;;
10727;SDS011;5415;59.322;18.246;2022-12-18T02:11:51;29.00;;;16.83;;
10727;SDS011;5415;59.322;18.246;2022-12-18T02:14:22;29.80;;;15.60;;
10727;SDS011;5415;59.322;18.246;2022-12-18T02:16:52;31.10;;;14.90;;
10727;SDS011;5415;59.322;18.246;2022-12-18T02:22:06;23.63;;;12.53;;
10727;SDS011;5415;59.322;18.246;2022-12-18T02:24:39;27.50;;;17.20;;
10727;SDS011;5415;59.322;18.246;2022-12-18T02:27:09;23.03;;;14.37;;
10727;SDS011;5415;59.322;18.246;2022-12-18T02:29:39;26.73;;;14.20;;
10727;SDS011;5415;59.322;18.246;2022-12-18T02:32:08;27.90;;;16.63;;
10727;SDS011;5415;59.322;18.246;2022-12-18T02:34:38;26.97;;;17.23;;
10727;SDS011;5415;59.322;18.246;2022-12-18T02:37:06;25.50;;;16.83;;
10727;SDS011;5415;59.322;18.246;2022-12-18T02:39:35;23.57;;;14.60;;
10727;SDS011;5415;59.322;18.246;2022-12-18T02:42:03;24.50;;;14.70;;
10727;SDS011;5415;59.322;18.246;2022-12-18T02:44:34;27.10;;;15.47;;
10727;SDS011;5415;59.322;18.246;2022-12-18T02:47:02;25.43;;;15.43;;
10727;SDS011;5415;59.322;18.246;2022-12-18T02:49:31;27.73;;;15.37;;
10727;SDS011;5415;59.322;18.246;2022-12-18T02:52:05;25.53;;;15.67;;
10727;SDS011;5415;59.322;18.246;2022-12-18T02:54:37;25.77;;;15.47;;
10727;SDS011;5415;59.322;18.246;2022-12-18T02:57:11;21.63;;;13.93;;
10727;SDS011;5415;59.322;18.246;2022-12-18T02:59:44;24.80;;;16.30;;
10727;SDS011;5415;59.322;18.246;2022-12-18T03:02:17;25.97;;;16.27;;
10727;SDS011;5415;59.322;18.246;2022-12-18T03:04:47;23.57;;;14.90;;
10727;SDS011;5415;59.322;18.246;2022-12-18T03:07:18;23.23;;;15.13;;
10727;SDS011;5415;59.322;18.246;2022-12-18T03:09:47;25.80;;;14.77;;
10727;SDS011;5415;59.322;18.246;2022-12-18T03:12:16;22.37;;;14.87;;
10727;SDS011;5415;59.322;18.246;2022-12-18T03:14:56;24.37;;;14.83;;
10727;SDS011;5415;59.322;18.246;2022-12-18T03:17:27;24.23;;;14.13;;
10727;SDS011;5415;59.322;18.246;2022-12-18T03:19:58;23.27;;;13.77;;
10727;SDS011;5415;59.322;18.246;2022-12-18T03:22:27;24.33;;;13.73;;
10727;SDS011;5415;59.322;18.246;2022-12-18T03:24:57;20.80;;;13.47;;
10727;SDS011;5415;59.322;18.246;2022-12-18T03:27:27;23.63;;;14.80;;
10727;SDS011;5415;59.322;18.246;2022-12-18T03:30:00;22.70;;;13.30;;
10727;SDS011;5415;59.322;18.246;2022-12-18T03:32:33;21.97;;;13.57;;
10727;SDS011;5415;59.322;18.246;2022-12-18T03:35:03;20.43;;;13.07;;
10727;SDS011;5415;59.322;18.246;2022-12-18T03:37:32;21.73;;;12.80;;
10727;SDS011;5415;59.322;18.246;2022-12-18T03:40:00;21.80;;;13.47;;
10727;SDS011;5415;59.322;18.246;2022-12-18T03:42:28;20.63;;;12.03;;
10727;SDS011;5415;59.322;18.246;2022-12-18T03:45:01;20.27;;;12.93;;
10727;SDS011;5415;59.322;18.246;2022-12-18T03:47:31;19.40;;;13.17;;
10727;SDS011;5415;59.322;18.246;2022-12-18T03:50:03;22.70;;;12.70;;
10727;SDS011;5415;59.322;18.246;2022-12-18T03:52:35;21.10;;;12.13;;
10727;SDS011;5415;59.322;18.246;2022-12-18T03:55:05;20.30;;;13.23;;
10727;SDS011;5415;59.322;18.246;2022-12-18T03:57:34;19.00;;;12.10;;
10727;SDS011;5415;59.322;18.246;2022-12-18T04:00:05;19.50;;;11.83;;
10727;SDS011;5415;59.322;18.246;2022-12-18T04:02:33;24.23;;;12.93;;
10727;SDS011;5415;59.322;18.246;2022-12-18T04:05:01;19.63;;;12.00;;
10727;SDS011;5415;59.322;18.246;2022-12-18T04:07:30;20.50;;;12.37;;
10727;SDS011;5415;59.322;18.246;2022-12-18T04:09:59;21.13;;;12.40;;
10727;SDS011;5415;59.322;18.246;2022-12-18T04:12:29;23.93;;;12.50;;
10727;SDS011;5415;59.322;18.246;2022-12-18T04:14:58;19.47;;;12.77;;
10727;SDS011;5415;59.322;18.246;2022-12-18T04:17:27;18.17;;;12.50;;
10727;SDS011;5415;59.322;18.246;2022-12-18T04:19:54;21.33;;;12.93;;
10727;SDS011;5415;59.322;18.246;2022-12-18T04:22:22;16.80;;;10.63;;
10727;SDS011;5415;59.322;18.246;2022-12-18T04:24:49;16.17;;;9.70;;
10727;SDS011;5415;59.322;18.246;2022-12-18T04:27:17;18.57;;;11.57;;
10727;SDS011;5415;59.322;18.246;2022-12-18T04:29:44;18.57;;;11.53;;
10727;SDS011;5415;59.322;18.246;2022-12-18T04:32:11;19.73;;;11.90;;
10727;SDS011;5415;59.322;18.246;2022-12-18T04:34:40;19.03;;;11.60;;
10727;SDS011;5415;59.322;18.246;2022-12-18T04:37:09;18.20;;;11.23;;
10727;SDS011;5415;59.322;18.246;2022-12-18T04:39:36;21.00;;;11.97;;
10727;SDS011;5415;59.322;18.246;2022-12-18T04:42:04;18.33;;;11.13;;
10727;SDS011;5415;59.322;18.246;2022-12-18T04:44:31;17.07;;;12.07;;
10727;SDS011;5415;59.322;18.246;2022-12-18T04:46:59;19.20;;;11.47;;
10727;SDS011;5415;59.322;18.246;2022-12-18T04:49:26;15.53;;;10.63;;
10727;SDS011;5415;59.322;18.246;2022-12-18T04:51:55;14.43;;;8.17;;
10727;SDS011;5415;59.322;18.246;2022-12-18T04:54:23;15.77;;;10.13;;
10727;SDS011;5415;59.322;18.246;2022-12-18T04:56:50;20.43;;;12.70;;
10727;SDS011;5415;59.322;18.246;2022-12-18T04:59:18;20.27;;;11.90;;
10727;SDS011;5415;59.322;18.246;2022-12-18T05:01:46;18.93;;;11.53;;
10727;SDS011;5415;59.322;18.246;2022-12-18T05:04:13;14.50;;;10.50;;
10727;SDS011;5415;59.322;18.246;2022-12-18T05:06:41;18.27;;;11.87;;
10727;SDS011;5415;59.322;18.246;2022-12-18T05:09:10;17.60;;;11.13;;
10727;SDS011;5415;59.322;18.246;2022-12-18T05:11:38;20.63;;;12.80;;
10727;SDS011;5415;59.322;18.246;2022-12-18T05:14:06;14.80;;;10.57;;
10727;SDS011;5415;59.322;18.246;2022-12-18T05:16:34;16.37;;;11.07;;
10727;SDS011;5415;59.322;18.246;2022-12-18T05:19:01;21.10;;;11.40;;
10727;SDS011;5415;59.322;18.246;2022-12-18T05:21:28;18.87;;;11.10;;
10727;SDS011;5415;59.322;18.246;2022-12-18T05:23:56;17.13;;;9.90;;
10727;SDS011;5415;59.322;18.246;2022-12-18T05:26:25;16.37;;;11.10;;
10727;SDS011;5415;59.322;18.246;2022-12-18T05:28:52;18.70;;;10.13;;
10727;SDS011;5415;59.322;18.246;2022-12-18T05:31:23;18.77;;;11.43;;
10727;SDS011;5415;59.322;18.246;2022-12-18T05:33:52;18.77;;;11.00;;
10727;SDS011;5415;59.322;18.246;2022-12-18T05:36:19;17.60;;;10.70;;
10727;SDS011;5415;59.322;18.246;2022-12-18T05:38:46;15.90;;;10.00;;
10727;SDS011;5415;59.322;18.246;2022-12-18T05:41:14;17.77;;;10.03;;
10727;SDS011;5415;59.322;18.246;2022-12-18T05:43:44;19.57;;;11.50;;
10727;SDS011;5415;59.322;18.246;2022-12-18T05:46:12;15.47;;;9.03;;
10727;SDS011;5415;59.322;18.246;2022-12-18T05:48:40;17.07;;;10.10;;
10727;SDS011;5415;59.322;18.246;2022-12-18T05:51:08;20.67;;;10.57;;
10727;SDS011;5415;59.322;18.246;2022-12-18T05:53:36;17.77;;;11.10;;
10727;SDS011;5415;59.322;18.246;2022-12-18T05:56:06;19.70;;;10.50;;
10727;SDS011;5415;59.322;18.246;2022-12-18T05:58:35;19.87;;;11.40;;
10727;SDS011;5415;59.322;18.246;2022-12-18T06:01:09;18.13;;;10.47;;
10727;SDS011;5415;59.322;18.246;2022-12-18T06:03:37;18.20;;;10.30;;
10727;SDS011;5415;59.322;18.246;2022-12-18T06:06:11;17.80;;;10.67;;
10727;SDS011;5415;59.322;18.246;2022-12-18T06:08:39;17.57;;;10.47;;
10727;SDS011;5415;59.322;18.246;2022-12-18T06:11:06;16.63;;;10.30;;
10727;SDS011;5415;59.322;18.246;2022-12-18T06:13:34;15.83;;;9.47;;
10727;SDS011;5415;59.322;18.246;2022-12-18T06:16:02;17.33;;;8.77;;
10727;SDS011;5415;59.322;18.246;2022-12-18T06:18:31;12.10;;;7.40;;
10727;SDS011;5415;59.322;18.246;2022-12-18T06:20:59;19.13;;;11.70;;
10727;SDS011;5415;59.322;18.246;2022-12-18T06:23:27;17.07;;;9.87;;
10727;SDS011;5415;59.322;18.246;2022-12-18T06:25:55;16.40;;;10.30;;
10727;SDS011;5415;59.322;18.246;2022-12-18T06:28:22;18.00;;;9.73;;
10727;SDS011;5415;59.322;18.246;2022-12-18T06:30:50;15.10;;;10.13;;
10727;SDS011;5415;59.322;18.246;2022-12-18T06:33:18;20.43;;;11.33;;
10727;SDS011;5415;59.322;18.246;2022-12-18T06:35:47;17.90;;;9.90;;
10727;SDS011;5415;59.322;18.246;2022-12-18T06:38:14;17.50;;;10.13;;
10727;SDS011;5415;59.322;18.246;2022-12-18T06:40:41;15.37;;;9.17;;
10727;SDS011;5415;59.322;18.246;2022-12-18T06:43:09;12.67;;;6.03;;
10727;SDS011;5415;59.322;18.246;2022-12-18T06:45:36;19.30;;;10.67;;
10727;SDS011;5415;59.322;18.246;2022-12-18T06:48:04;16.97;;;9.90;;
10727;SDS011;5415;59.322;18.246;2022-12-18T06:50:32;17.73;;;10.40;;
10727;SDS011;5415;59.322;18.246;2022-12-18T06:53:02;15.80;;;10.13;;
10727;SDS011;5415;59.322;18.246;2022-12-18T06:55:29;16.93;;;10.03;;
10727;SDS011;5415;59.322;18.246;2022-12-18T06:57:57;19.87;;;11.00;;
10727;SDS011;5415;59.322;18.246;2022-12-18T07:00:24;18.73;;;12.03;;
10727;SDS011;5415;59.322;18.246;2022-12-18T07:02:52;20.83;;;11.20;;
10727;SDS011;5415;59.322;18.246;2022-12-18T07:05:19;16.77;;;10.53;;
10727;SDS011;5415;59.322;18.246;2022-12-18T07:07:47;18.53;;;10.93;;
10727;SDS011;5415;59.322;18.246;2022-12-18T07:10:16;20.67;;;11.67;;
10727;SDS011;5415;59.322;18.246;2022-12-18T07:12:44;19.97;;;11.00;;
10727;SDS011;5415;59.322;18.246;2022-12-18T07:15:12;20.17;;;11.73;;
10727;SDS011;5415;59.322;18.246;2022-12-18T07:17:40;20.77;;;11.50;;
10727;SDS011;5415;59.322;18.246;2022-12-18T07:20:08;16.97;;;9.77;;
10727;SDS011;5415;59.322;18.246;2022-12-18T07:22:36;21.57;;;10.13;;
10727;SDS011;5415;59.322;18.246;2022-12-18T07:25:03;20.53;;;11.77;;
10727;SDS011;5415;59.322;18.246;2022-12-18T07:27:32;18.43;;;10.43;;
10727;SDS011;5415;59.322;18.246;2022-12-18T07:30:00;20.83;;;12.83;;
10727;SDS011;5415;59.322;18.246;2022-12-18T07:32:28;24.47;;;13.03;;
10727;SDS011;5415;59.322;18.246;2022-12-18T07:34:57;21.77;;;13.00;;
10727;SDS011;5415;59.322;18.246;2022-12-18T07:37:24;25.83;;;15.33;;
10727;SDS011;5415;59.322;18.246;2022-12-18T07:39:52;43.83;;;25.70;;
10727;SDS011;5415;59.322;18.246;2022-12-18T07:42:20;22.30;;;14.63;;
10727;SDS011;5415;59.322;18.246;2022-12-18T07:45:03;29.57;;;15.87;;
10727;SDS011;5415;59.322;18.246;2022-12-18T07:47:33;21.37;;;12.30;;
10727;SDS011;5415;59.322;18.246;2022-12-18T07:50:01;22.97;;;14.17;;
10727;SDS011;5415;59.322;18.246;2022-12-18T07:52:30;24.30;;;14.43;;
10727;SDS011;5415;59.322;18.246;2022-12-18T07:54:57;23.87;;;13.57;;
10727;SDS011;5415;59.322;18.246;2022-12-18T07:57:26;24.47;;;13.10;;
10727;SDS011;5415;59.322;18.246;2022-12-18T07:59:54;23.67;;;14.73;;
10727;SDS011;5415;59.322;18.246;2022-12-18T08:02:26;24.20;;;13.70;;
10727;SDS011;5415;59.322;18.246;2022-12-18T08:04:54;23.67;;;13.87;;
10727;SDS011;5415;59.322;18.246;2022-12-18T08:07:22;25.63;;;15.00;;
10727;SDS011;5415;59.322;18.246;2022-12-18T08:09:49;23.93;;;13.63;;
10727;SDS011;5415;59.322;18.246;2022-12-18T08:12:17;27.30;;;16.90;;
10727;SDS011;5415;59.322;18.246;2022-12-18T08:14:44;26.13;;;14.77;;
10727;SDS011;5415;59.322;18.246;2022-12-18T08:17:11;33.93;;;16.67;;
10727;SDS011;5415;59.322;18.246;2022-12-18T08:19:41;26.57;;;16.17;;
10727;SDS011;5415;59.322;18.246;2022-12-18T08:22:08;30.10;;;19.40;;
10727;SDS011;5415;59.322;18.246;2022-12-18T08:24:35;28.97;;;15.37;;
10727;SDS011;5415;59.322;18.246;2022-12-18T08:27:02;26.23;;;13.80;;
10727;SDS011;5415;59.322;18.246;2022-12-18T08:29:30;25.27;;;15.43;;
10727;SDS011;5415;59.322;18.246;2022-12-18T08:31:58;29.60;;;15.87;;
10727;SDS011;5415;59.322;18.246;2022-12-18T08:34:26;24.40;;;15.93;;
10727;SDS011;5415;59.322;18.246;2022-12-18T08:36:55;28.07;;;16.20;;
10727;SDS011;5415;59.322;18.246;2022-12-18T08:39:22;24.90;;;15.03;;
10727;SDS011;5415;59.322;18.246;2022-12-18T08:41:49;24.67;;;14.87;;
10727;SDS011;5415;59.322;18.246;2022-12-18T08:44:31;26.23;;;16.07;;
10727;SDS011;5415;59.322;18.246;2022-12-18T08:47:04;25.23;;;16.20;;
10727;SDS011;5415;59.322;18.246;2022-12-18T08:49:31;32.70;;;17.70;;
10727;SDS011;5415;59.322;18.246;2022-12-18T08:52:00;28.80;;;16.70;;
10727;SDS011;5415;59.322;18.246;2022-12-18T08:54:28;26.33;;;16.50;;
10727;SDS011;5415;59.322;18.246;2022-12-18T08:56:57;23.33;;;15.60;;
10727;SDS011;5415;59.322;18.246;2022-12-18T08:59:25;29.07;;;16.20;;
10727;SDS011;5415;59.322;18.246;2022-12-18T09:01:58;26.30;;;15.50;;
10727;SDS011;5415;59.322;18.246;2022-12-18T09:04:25;31.87;;;17.20;;
10727;SDS011;5415;59.322;18.246;2022-12-18T09:06:54;31.30;;;16.83;;
10727;SDS011;5415;59.322;18.246;2022-12-18T09:09:23;24.67;;;16.00;;
10727;SDS011;5415;59.322;18.246;2022-12-18T09:11:51;26.20;;;16.17;;
10727;SDS011;5415;59.322;18.246;2022-12-18T09:14:18;25.10;;;15.23;;
10727;SDS011;5415;59.322;18.246;2022-12-18T09:16:46;26.13;;;16.40;;
10727;SDS011;5415;59.322;18.246;2022-12-18T09:19:13;25.43;;;15.63;;
10727;SDS011;5415;59.322;18.246;2022-12-18T09:21:41;24.33;;;14.50;;
10727;SDS011;5415;59.322;18.246;2022-12-18T09:24:11;27.07;;;15.60;;
10727;SDS011;5415;59.322;18.246;2022-12-18T09:26:40;26.07;;;15.47;;
10727;SDS011;5415;59.322;18.246;2022-12-18T09:29:07;23.77;;;14.60;;
10727;SDS011;5415;59.322;18.246;2022-12-18T09:31:35;27.67;;;16.03;;
10727;SDS011;5415;59.322;18.246;2022-12-18T09:34:03;19.17;;;12.30;;
10727;SDS011;5415;59.322;18.246;2022-12-18T09:36:32;19.10;;;13.57;;
10727;SDS011;5415;59.322;18.246;2022-12-18T09:38:59;20.87;;;12.87;;
10727;SDS011;5415;59.322;18.246;2022-12-18T09:41:32;20.50;;;12.33;;
10727;SDS011;5415;59.322;18.246;2022-12-18T09:44:04;21.77;;;15.10;;
10727;SDS011;5415;59.322;18.246;2022-12-18T09:46:37;24.47;;;14.77;;
10727;SDS011;5415;59.322;18.246;2022-12-18T09:49:10;24.17;;;15.40;;
10727;SDS011;5415;59.322;18.246;2022-12-18T09:51:39;24.63;;;13.90;;
10727;SDS011;5415;59.322;18.246;2022-12-18T09:54:10;16.90;;;10.40;;
10727;SDS011;5415;59.322;18.246;2022-12-18T09:56:40;21.27;;;14.20;;
10727;SDS011;5415;59.322;18.246;2022-12-18T09:59:14;21.07;;;14.33;;
10727;SDS011;5415;59.322;18.246;2022-12-18T10:01:43;21.10;;;15.30;;
10727;SDS011;5415;59.322;18.246;2022-12-18T10:04:10;19.80;;;13.13;;
10727;SDS011;5415;59.322;18.246;2022-12-18T10:06:41;20.63;;;12.53;;
10727;SDS011;5415;59.322;18.246;2022-12-18T10:09:15;17.77;;;12.57;;
10727;SDS011;5415;59.322;18.246;2022-12-18T10:11:48;20.43;;;12.50;;
10727;SDS011;5415;59.322;18.246;2022-12-18T10:14:23;18.13;;;11.87;;
10727;SDS011;5415;59.322;18.246;2022-12-18T10:16:57;20.03;;;11.43;;
10727;SDS011;5415;59.322;18.246;2022-12-18T10:19:36;23.23;;;14.33;;
10727;SDS011;5415;59.322;18.246;2022-12-18T10:22:10;20.80;;;14.37;;
10727;SDS011;5415;59.322;18.246;2022-12-18T10:24:40;13.83;;;10.03;;
10727;SDS011;5415;59.322;18.246;2022-12-18T10:27:12;20.97;;;13.63;;
10727;SDS011;5415;59.322;18.246;2022-12-18T10:29:44;14.63;;;8.63;;
10727;SDS011;5415;59.322;18.246;2022-12-18T10:32:13;17.67;;;11.73;;
10727;SDS011;5415;59.322;18.246;2022-12-18T10:34:50;23.20;;;13.40;;
10727;SDS011;5415;59.322;18.246;2022-12-18T10:37:19;19.60;;;12.47;;
10727;SDS011;5415;59.322;18.246;2022-12-18T10:40:04;17.57;;;9.83;;
10727;SDS011;5415;59.322;18.246;2022-12-18T10:42:34;16.97;;;10.30;;
10727;SDS011;5415;59.322;18.246;2022-12-18T10:45:11;23.13;;;15.97;;
10727;SDS011;5415;59.322;18.246;2022-12-18T10:47:43;16.33;;;11.20;;
10727;SDS011;5415;59.322;18.246;2022-12-18T10:50:18;20.60;;;12.70;;
10727;SDS011;5415;59.322;18.246;2022-12-18T10:52:52;19.00;;;11.93;;
10727;SDS011;5415;59.322;18.246;2022-12-18T10:55:21;24.40;;;13.30;;
10727;SDS011;5415;59.322;18.246;2022-12-18T10:57:49;21.83;;;11.53;;
10727;SDS011;5415;59.322;18.246;2022-12-18T11:00:26;20.23;;;13.87;;
10727;SDS011;5415;59.322;18.246;2022-12-18T11:02:55;24.10;;;14.73;;
10727;SDS011;5415;59.322;18.246;2022-12-18T11:05:25;22.90;;;14.47;;
10727;SDS011;5415;59.322;18.246;2022-12-18T11:07:53;19.77;;;12.93;;
10727;SDS011;5415;59.322;18.246;2022-12-18T11:10:22;21.70;;;14.53;;
10727;SDS011;5415;59.322;18.246;2022-12-18T11:12:53;11.33;;;8.13;;
10727;SDS011;5415;59.322;18.246;2022-12-18T11:15:26;18.93;;;11.53;;
10727;SDS011;5415;59.322;18.246;2022-12-18T11:17:54;20.03;;;13.87;;
10727;SDS011;5415;59.322;18.246;2022-12-18T11:20:30;24.60;;;14.80;;
10727;SDS011;5415;59.322;18.246;2022-12-18T11:22:59;21.90;;;14.30;;
10727;SDS011;5415;59.322;18.246;2022-12-18T11:25:29;16.17;;;11.97;;
10727;SDS011;5415;59.322;18.246;2022-12-18T11:27:58;22.10;;;12.43;;
10727;SDS011;5415;59.322;18.246;2022-12-18T11:30:30;22.73;;;12.90;;
10727;SDS011;5415;59.322;18.246;2022-12-18T11:33:00;14.87;;;10.30;;
10727;SDS011;5415;59.322;18.246;2022-12-18T11:35:37;20.70;;;13.50;;
10727;SDS011;5415;59.322;18.246;2022-12-18T11:38:12;21.30;;;15.77;;
10727;SDS011;5415;59.322;18.246;2022-12-18T11:40:46;18.80;;;11.37;;
10727;SDS011;5415;59.322;18.246;2022-12-18T11:43:16;17.23;;;8.70;;
10727;SDS011;5415;59.322;18.246;2022-12-18T11:45:51;21.27;;;13.60;;
10727;SDS011;5415;59.322;18.246;2022-12-18T11:48:21;19.87;;;12.50;;
10727;SDS011;5415;59.322;18.246;2022-12-18T11:50:53;14.10;;;8.80;;
10727;SDS011;5415;59.322;18.246;2022-12-18T11:53:21;20.10;;;14.07;;
10727;SDS011;5415;59.322;18.246;2022-12-18T11:56:03;21.90;;;14.63;;
10727;SDS011;5415;59.322;18.246;2022-12-18T11:58:42;23.77;;;14.67;;
10727;SDS011;5415;59.322;18.246;2022-12-18T12:01:18;20.93;;;11.93;;
10727;SDS011;5415;59.322;18.246;2022-12-18T12:03:58;23.03;;;13.83;;
10727;SDS011;5415;59.322;18.246;2022-12-18T12:06:30;20.77;;;11.37;;
10727;SDS011;5415;59.322;18.246;2022-12-18T12:09:02;17.33;;;10.40;;
10727;SDS011;5415;59.322;18.246;2022-12-18T12:11:42;22.67;;;13.87;;
10727;SDS011;5415;59.322;18.246;2022-12-18T12:14:20;19.67;;;13.23;;
10727;SDS011;5415;59.322;18.246;2022-12-18T12:16:53;20.40;;;12.70;;
10727;SDS011;5415;59.322;18.246;2022-12-18T12:19:29;18.97;;;11.80;;
10727;SDS011;5415;59.322;18.246;2022-12-18T12:22:05;21.00;;;12.03;;
10727;SDS011;5415;59.322;18.246;2022-12-18T12:24:37;20.27;;;13.03;;
10727;SDS011;5415;59.322;18.246;2022-12-18T12:27:11;21.37;;;13.63;;
10727;SDS011;5415;59.322;18.246;2022-12-18T12:29:46;20.53;;;13.07;;
10727;SDS011;5415;59.322;18.246;2022-12-18T12:32:25;17.37;;;11.77;;
10727;SDS011;5415;59.322;18.246;2022-12-18T12:35:00;20.47;;;12.33;;
10727;SDS011;5415;59.322;18.246;2022-12-18T12:37:34;16.80;;;10.70;;
10727;SDS011;5415;59.322;18.246;2022-12-18T12:40:05;21.80;;;13.77;;
10727;SDS011;5415;59.322;18.246;2022-12-18T12:42:34;18.60;;;11.83;;
10727;SDS011;5415;59.322;18.246;2022-12-18T12:45:22;21.53;;;12.70;;
10727;SDS011;5415;59.322;18.246;2022-12-18T12:47:53;21.70;;;11.83;;
10727;SDS011;5415;59.322;18.246;2022-12-18T12:50:21;21.50;;;12.20;;
10727;SDS011;5415;59.322;18.246;2022-12-18T12:52:50;18.57;;;10.90;;
10727;SDS011;5415;59.322;18.246;2022-12-18T12:55:20;17.27;;;11.13;;
10727;SDS011;5415;59.322;18.246;2022-12-18T12:57:52;23.90;;;13.83;;
10727;SDS011;5415;59.322;18.246;2022-12-18T13:00:23;17.53;;;11.83;;
10727;SDS011;5415;59.322;18.246;2022-12-18T13:02:56;23.63;;;13.10;;
10727;SDS011;5415;59.322;18.246;2022-12-18T13:05:28;24.83;;;14.07;;
10727;SDS011;5415;59.322;18.246;2022-12-18T13:07:59;19.53;;;11.83;;
10727;SDS011;5415;59.322;18.246;2022-12-18T13:10:32;19.20;;;12.07;;
10727;SDS011;5415;59.322;18.246;2022-12-18T13:13:00;20.70;;;10.10;;
10727;SDS011;5415;59.322;18.246;2022-12-18T13:15:30;20.17;;;12.00;;
10727;SDS011;5415;59.322;18.246;2022-12-18T13:18:09;21.87;;;12.20;;
10727;SDS011;5415;59.322;18.246;2022-12-18T13:20:39;28.70;;;14.57;;
10727;SDS011;5415;59.322;18.246;2022-12-18T13:28:50;22.73;;;12.03;;
10727;SDS011;5415;59.322;18.246;2022-12-18T13:34:09;18.73;;;12.13;;
10727;SDS011;5415;59.322;18.246;2022-12-18T13:36:42;19.97;;;13.23;;
10727;SDS011;5415;59.322;18.246;2022-12-18T13:41:53;19.20;;;12.07;;
10727;SDS011;5415;59.322;18.246;2022-12-18T13:44:25;20.63;;;12.33;;
10727;SDS011;5415;59.322;18.246;2022-12-18T13:46:53;19.50;;;11.43;;
10727;SDS011;5415;59.322;18.246;2022-12-18T13:49:23;18.90;;;9.43;;
10727;SDS011;5415;59.322;18.246;2022-12-18T13:51:54;17.87;;;10.67;;
10727;SDS011;5415;59.322;18.246;2022-12-18T13:54:24;21.50;;;11.27;;
10727;SDS011;5415;59.322;18.246;2022-12-18T13:56:52;18.13;;;10.33;;
10727;SDS011;5415;59.322;18.246;2022-12-18T13:59:20;22.13;;;11.50;;
10727;SDS011;5415;59.322;18.246;2022-12-18T14:01:49;17.67;;;11.03;;
10727;SDS011;5415;59.322;18.246;2022-12-18T14:04:37;17.07;;;10.93;;
10727;SDS011;5415;59.322;18.246;2022-12-18T14:07:05;12.33;;;7.80;;
10727;SDS011;5415;59.322;18.246;2022-12-18T14:09:34;16.00;;;9.43;;
10727;SDS011;5415;59.322;18.246;2022-12-18T14:12:03;17.40;;;9.33;;
10727;SDS011;5415;59.322;18.246;2022-12-18T14:14:48;18.67;;;10.10;;
10727;SDS011;5415;59.322;18.246;2022-12-18T14:17:16;20.87;;;10.40;;
10727;SDS011;5415;59.322;18.246;2022-12-18T14:19:49;19.20;;;10.20;;
10727;SDS011;5415;59.322;18.246;2022-12-18T14:22:18;12.53;;;7.20;;
10727;SDS011;5415;59.322;18.246;2022-12-18T14:24:47;18.53;;;10.33;;
10727;SDS011;5415;59.322;18.246;2022-12-18T14:27:22;21.33;;;9.27;;
10727;SDS011;5415;59.322;18.246;2022-12-18T14:29:49;14.03;;;8.00;;
10727;SDS011;5415;59.322;18.246;2022-12-18T14:32:17;16.73;;;9.07;;
10727;SDS011;5415;59.322;18.246;2022-12-18T14:34:48;15.87;;;7.63;;
10727;SDS011;5415;59.322;18.246;2022-12-18T14:37:20;20.47;;;10.43;;
10727;SDS011;5415;59.322;18.246;2022-12-18T14:39:54;19.83;;;9.77;;
10727;SDS011;5415;59.322;18.246;2022-12-18T14:42:23;16.23;;;8.47;;
10727;SDS011;5415;59.322;18.246;2022-12-18T14:47:35;16.10;;;8.10;;
10727;SDS011;5415;59.322;18.246;2022-12-18T14:50:11;16.00;;;7.27;;
10727;SDS011;5415;59.322;18.246;2022-12-18T14:52:39;12.70;;;7.07;;
10727;SDS011;5415;59.322;18.246;2022-12-18T14:55:13;13.37;;;6.17;;
10727;SDS011;5415;59.322;18.246;2022-12-18T14:57:42;10.87;;;5.70;;